createdAt,value
2018-11-07T00:01:24.222Z,27.13
2018-11-07T00:03:52.600Z,26.77
2018-11-07T00:06:20.993Z,23.90
2018-11-07T00:08:49.371Z,24.37
2018-11-07T00:11:17.771Z,38.67
2018-11-07T00:13:46.186Z,44.80
2018-11-07T00:16:14.606Z,40.43
2018-11-07T00:18:43.074Z,37.20
2018-11-07T00:21:11.466Z,33.73
2018-11-07T00:23:39.846Z,21.30
2018-11-07T00:26:08.258Z,33.03
2018-11-07T00:28:36.639Z,38.07
2018-11-07T00:31:05.040Z,30.00
2018-11-07T00:33:33.415Z,31.90
2018-11-07T00:36:01.814Z,27.13
2018-11-07T00:38:30.185Z,21.13
2018-11-07T00:40:58.611Z,26.20
2018-11-07T00:43:26.982Z,27.10
2018-11-07T00:45:55.379Z,26.97
2018-11-07T00:48:23.758Z,22.93
2018-11-07T00:50:52.163Z,24.20
2018-11-07T00:53:20.553Z,20.57
2018-11-07T00:55:48.949Z,22.17
2018-11-07T00:58:17.315Z,22.67
2018-11-07T01:00:45.711Z,28.77
2018-11-07T01:03:14.095Z,27.67
2018-11-07T01:05:42.510Z,26.80
2018-11-07T01:08:10.890Z,27.13
2018-11-07T01:10:39.662Z,23.80
2018-11-07T01:13:08.061Z,26.43
2018-11-07T01:15:36.434Z,33.73
2018-11-07T01:18:05.250Z,26.90
2018-11-07T01:20:33.617Z,31.23
2018-11-07T01:23:02.044Z,28.50
2018-11-07T01:25:30.418Z,28.63
2018-11-07T01:27:58.851Z,33.20
2018-11-07T01:30:27.219Z,31.53
2018-11-07T01:32:55.610Z,67.53
2018-11-07T01:35:23.989Z,75.50
2018-11-07T01:37:52.382Z,145.77
2018-11-07T01:40:20.753Z,140.23
2018-11-07T01:42:49.179Z,173.00
2018-11-07T01:45:17.562Z,163.77
2018-11-07T01:47:45.962Z,207.97
2018-11-07T01:50:14.538Z,149.57
2018-11-07T01:52:42.938Z,123.83
2018-11-07T01:55:11.511Z,112.77
2018-11-07T01:57:39.922Z,60.13
2018-11-07T02:00:10.618Z,47.33
2018-11-07T02:02:39.129Z,44.10
2018-11-07T02:05:07.885Z,35.97
2018-11-07T02:07:36.281Z,57.10
2018-11-07T02:10:05.706Z,59.77
2018-11-07T02:12:34.182Z,280.63
2018-11-07T02:15:02.844Z,315.67
2018-11-07T02:17:31.243Z,180.97
2018-11-07T02:19:59.621Z,322.27
2018-11-07T02:22:28.024Z,361.57
2018-11-07T02:24:56.407Z,381.40
2018-11-07T02:27:24.806Z,436.87
2018-11-07T02:29:53.270Z,267.93
2018-11-07T02:32:21.666Z,271.77
2018-11-07T02:34:50.038Z,442.40
2018-11-07T02:37:18.439Z,137.90
2018-11-07T02:39:46.818Z,178.63
2018-11-07T02:42:15.234Z,112.50
2018-11-07T02:44:43.610Z,197.60
2018-11-07T02:47:12.009Z,191.60
2018-11-07T02:49:40.384Z,104.27
2018-11-07T02:52:08.783Z,290.07
2018-11-07T02:54:37.154Z,91.57
2018-11-07T02:57:05.649Z,119.57
2018-11-07T02:59:34.035Z,49.73
2018-11-07T03:02:02.426Z,35.53
2018-11-07T03:04:30.806Z,40.27
2018-11-07T03:06:59.222Z,35.40
2018-11-07T03:09:27.594Z,37.80
2018-11-07T03:11:55.962Z,42.80
2018-11-07T03:14:24.846Z,43.90
2018-11-07T03:16:53.211Z,34.97
2018-11-07T03:19:21.607Z,30.40
2018-11-07T03:21:49.978Z,42.30
2018-11-07T03:24:18.371Z,34.97
2018-11-07T03:26:46.745Z,34.07
2018-11-07T03:29:15.142Z,29.53
2018-11-07T03:31:43.506Z,28.30
2018-11-07T03:34:11.902Z,34.33
2018-11-07T03:36:40.273Z,33.27
2018-11-07T03:39:10.230Z,34.27
2018-11-07T03:41:38.899Z,62.70
2018-11-07T03:44:08.125Z,44.83
2018-11-07T03:46:36.526Z,52.07
2018-11-07T03:49:05.314Z,49.23
2018-11-07T03:51:33.681Z,48.37
2018-11-07T03:54:02.112Z,54.07
2018-11-07T03:56:30.491Z,60.17
2018-11-07T03:58:58.886Z,76.17
2018-11-07T04:01:27.258Z,67.17
2018-11-07T04:03:55.652Z,75.97
2018-11-07T04:06:24.038Z,50.27
2018-11-07T04:08:52.455Z,44.07
2018-11-07T04:11:20.868Z,52.80
2018-11-07T04:13:49.282Z,55.03
2018-11-07T04:16:17.652Z,49.90
2018-11-07T04:18:46.117Z,46.77
2018-11-07T04:21:14.643Z,46.60
2018-11-07T04:23:47.426Z,43.63
2018-11-07T04:26:15.810Z,39.90
2018-11-07T04:28:44.215Z,41.37
2018-11-07T04:31:12.603Z,37.17
2018-11-07T04:33:41.001Z,41.90
2018-11-07T04:36:09.394Z,40.57
2018-11-07T04:38:37.794Z,43.80
2018-11-07T04:41:06.473Z,65.17
2018-11-07T04:43:34.863Z,63.70
2018-11-07T04:46:03.239Z,65.83
2018-11-07T04:48:31.631Z,90.53
2018-11-07T04:50:59.998Z,95.80
2018-11-07T04:53:28.390Z,76.30
2018-11-07T04:55:56.762Z,48.63
2018-11-07T04:58:25.154Z,47.43
2018-11-07T05:00:53.522Z,47.93
2018-11-07T05:03:21.913Z,52.63
2018-11-07T05:05:50.319Z,46.93
2018-11-07T05:08:18.827Z,54.67
2018-11-07T05:10:47.206Z,48.03
2018-11-07T05:13:15.574Z,52.13
2018-11-07T05:15:43.970Z,53.27
2018-11-07T05:18:12.346Z,52.53
2018-11-07T05:20:40.734Z,55.17
2018-11-07T05:23:09.108Z,54.13
2018-11-07T05:25:37.798Z,52.10
2018-11-07T05:28:06.286Z,49.73
2018-11-07T05:30:34.797Z,64.23
2018-11-07T05:33:03.175Z,51.00
2018-11-07T05:35:31.571Z,56.67
2018-11-07T05:37:59.942Z,52.83
2018-11-07T05:40:28.513Z,54.27
2018-11-07T05:42:56.903Z,57.70
2018-11-07T05:45:25.342Z,72.77
2018-11-07T05:47:53.712Z,84.03
2018-11-07T05:50:22.107Z,63.13
2018-11-07T05:52:50.483Z,78.37
2018-11-07T05:55:18.882Z,83.50
2018-11-07T05:57:47.250Z,97.33
2018-11-07T06:00:15.658Z,66.53
2018-11-07T06:02:44.026Z,93.67
2018-11-07T06:05:12.828Z,65.57
2018-11-07T06:07:41.486Z,60.90
2018-11-07T06:10:11.939Z,89.47
2018-11-07T06:12:40.701Z,49.70
2018-11-07T06:15:10.342Z,60.80
2018-11-07T06:17:38.710Z,53.83
2018-11-07T06:20:08.021Z,53.37
2018-11-07T06:22:36.578Z,49.60
2018-11-07T06:25:05.335Z,55.80
2018-11-07T06:27:33.722Z,50.37
2018-11-07T06:30:02.364Z,55.83
2018-11-07T06:32:30.758Z,57.50
2018-11-07T06:34:59.149Z,54.00
2018-11-07T06:37:27.520Z,55.30
2018-11-07T06:39:55.917Z,62.50
2018-11-07T06:42:24.343Z,63.57
2018-11-07T06:44:53.148Z,55.00
2018-11-07T06:47:21.524Z,62.90
2018-11-07T06:49:49.918Z,60.67
2018-11-07T06:52:18.309Z,70.80
2018-11-07T06:54:47.001Z,55.37
2018-11-07T06:57:15.689Z,53.57
2018-11-07T06:59:44.234Z,45.17
2018-11-07T07:02:12.606Z,43.80
2018-11-07T07:04:41.006Z,37.17
2018-11-07T07:07:09.380Z,43.70
2018-11-07T07:09:37.778Z,47.10
2018-11-07T07:12:06.207Z,52.83
2018-11-07T07:14:34.674Z,52.00
2018-11-07T07:17:03.346Z,51.30
2018-11-07T07:19:31.774Z,60.40
2018-11-07T07:22:00.139Z,86.93
2018-11-07T07:24:28.506Z,56.97
2018-11-07T07:26:56.898Z,62.00
2018-11-07T07:29:25.269Z,75.47
2018-11-07T07:31:53.669Z,67.20
2018-11-07T07:34:23.710Z,118.00
2018-11-07T07:36:52.105Z,92.83
2018-11-07T07:39:20.479Z,109.07
2018-11-07T07:41:48.890Z,99.67
2018-11-07T07:44:17.271Z,92.27
2018-11-07T07:46:45.676Z,92.13
2018-11-07T07:49:14.081Z,113.70
2018-11-07T07:51:42.495Z,107.30
2018-11-07T07:54:10.874Z,101.00
2018-11-07T07:56:39.270Z,121.60
2018-11-07T07:59:07.648Z,103.67
2018-11-07T08:01:36.047Z,105.50
2018-11-07T08:04:04.444Z,103.43
2018-11-07T08:06:35.450Z,105.90
2018-11-07T08:09:04.756Z,98.07
2018-11-07T08:11:33.151Z,91.43
2018-11-07T08:14:01.571Z,93.83
2018-11-07T08:16:29.954Z,109.77
2018-11-07T08:18:58.322Z,92.43
2018-11-07T08:21:26.778Z,92.30
2018-11-07T08:23:55.123Z,105.30
2018-11-07T08:26:23.519Z,93.90
2018-11-07T08:28:51.882Z,89.43
2018-11-07T08:31:20.283Z,102.37
2018-11-07T08:33:48.655Z,109.20
2018-11-07T08:36:17.062Z,81.17
2018-11-07T08:38:45.431Z,72.90
2018-11-07T08:41:13.846Z,107.77
2018-11-07T08:43:42.218Z,110.20
2018-11-07T08:46:10.610Z,73.83
2018-11-07T08:48:38.981Z,94.53
2018-11-07T08:51:07.378Z,80.23
2018-11-07T08:53:35.747Z,81.30
2018-11-07T08:56:04.140Z,78.10
2018-11-07T08:58:32.515Z,85.13
2018-11-07T09:01:00.918Z,80.20
2018-11-07T09:03:29.296Z,75.53
2018-11-07T09:05:57.691Z,68.50
2018-11-07T09:08:26.074Z,81.43
2018-11-07T09:10:54.478Z,76.37
2018-11-07T09:13:22.871Z,83.00
2018-11-07T09:15:51.250Z,90.50
2018-11-07T09:18:19.658Z,79.07
2018-11-07T09:20:48.030Z,74.30
2018-11-07T09:23:16.450Z,78.37
2018-11-07T09:25:44.827Z,77.70
2018-11-07T09:28:13.218Z,65.10
2018-11-07T09:30:41.586Z,80.10
2018-11-07T09:33:09.994Z,79.40
2018-11-07T09:35:38.380Z,76.50
2018-11-07T09:38:06.814Z,77.93
2018-11-07T09:40:35.190Z,65.83
2018-11-07T09:43:03.612Z,72.53
2018-11-07T09:45:31.987Z,67.30
2018-11-07T09:48:00.398Z,92.83
2018-11-07T09:50:28.781Z,72.67
2018-11-07T09:52:57.174Z,74.23
2018-11-07T09:55:25.554Z,73.90
2018-11-07T09:57:53.951Z,66.50
2018-11-07T10:00:22.705Z,70.37
2018-11-07T10:02:51.102Z,67.43
2018-11-07T10:05:20.615Z,78.87
2018-11-07T10:07:49.016Z,76.43
2018-11-07T10:10:18.774Z,72.50
2018-11-07T10:12:47.452Z,73.87
2018-11-07T10:15:15.947Z,84.97
2018-11-07T10:17:44.350Z,77.27
2018-11-07T10:20:14.551Z,74.40
2018-11-07T10:22:43.666Z,81.27
2018-11-07T10:25:12.535Z,83.60
2018-11-07T10:27:41.400Z,76.57
2018-11-07T10:30:11.513Z,75.90
2018-11-07T10:32:40.092Z,79.73
2018-11-07T10:35:09.127Z,83.23
2018-11-07T10:37:37.531Z,78.10
2018-11-07T10:40:08.578Z,74.07
2018-11-07T10:42:37.016Z,74.57
2018-11-07T10:45:05.746Z,78.87
2018-11-07T10:47:34.138Z,87.83
2018-11-07T10:50:02.510Z,78.20
2018-11-07T10:52:30.923Z,75.90
2018-11-07T10:54:59.310Z,75.33
2018-11-07T10:57:27.710Z,79.87
2018-11-07T10:59:56.087Z,86.40
2018-11-07T11:02:29.910Z,77.53
2018-11-07T11:04:58.296Z,70.10
2018-11-07T11:07:26.895Z,81.90
2018-11-07T11:09:55.295Z,72.93
2018-11-07T11:12:23.970Z,80.20
2018-11-07T11:14:52.370Z,73.80
2018-11-07T11:17:20.780Z,80.37
2018-11-07T11:19:49.166Z,74.27
2018-11-07T11:22:17.546Z,83.73
2018-11-07T11:24:45.942Z,71.50
2018-11-07T11:27:14.378Z,72.07
2018-11-07T11:29:42.754Z,79.67
2018-11-07T11:32:11.131Z,77.50
2018-11-07T11:34:39.583Z,74.13
2018-11-07T11:37:07.935Z,77.03
2018-11-07T11:39:36.326Z,81.10
2018-11-07T11:42:05.035Z,74.93
2018-11-07T11:44:33.431Z,79.90
2018-11-07T11:47:01.810Z,84.33
2018-11-07T11:49:30.227Z,78.00
2018-11-07T11:51:58.595Z,77.10
2018-11-07T11:54:26.994Z,76.30
2018-11-07T11:56:55.468Z,76.50
2018-11-07T11:59:24.221Z,76.73
2018-11-07T12:01:52.357Z,81.47
2018-11-07T12:04:20.756Z,76.47
2018-11-07T12:06:49.128Z,76.60
2018-11-07T12:09:17.534Z,81.27
2018-11-07T12:11:45.991Z,77.10
2018-11-07T12:14:14.374Z,78.07
2018-11-07T12:16:42.757Z,81.50
2018-11-07T12:19:11.155Z,80.00
2018-11-07T12:21:39.526Z,82.93
2018-11-07T12:24:07.927Z,72.97
2018-11-07T12:26:36.319Z,84.87
2018-11-07T12:29:04.830Z,67.30
2018-11-07T12:31:33.231Z,65.10
2018-11-07T12:34:01.606Z,76.57
2018-11-07T12:36:30.069Z,76.13
2018-11-07T12:38:58.409Z,67.23
2018-11-07T12:41:26.830Z,67.67
2018-11-07T12:43:55.206Z,73.33
2018-11-07T12:46:23.599Z,77.03
2018-11-07T12:48:51.974Z,78.30
2018-11-07T12:51:20.374Z,70.80
2018-11-07T12:53:48.746Z,72.17
2018-11-07T12:56:17.142Z,67.73
2018-11-07T12:58:45.519Z,66.20
2018-11-07T13:01:13.953Z,73.60
2018-11-07T13:03:42.398Z,70.70
2018-11-07T13:06:10.805Z,70.60
2018-11-07T13:08:39.210Z,65.70
2018-11-07T13:11:07.668Z,73.77
2018-11-07T13:13:36.011Z,66.20
2018-11-07T13:16:04.619Z,68.97
2018-11-07T13:18:33.002Z,70.30
2018-11-07T13:21:01.407Z,68.20
2018-11-07T13:23:29.782Z,63.73
2018-11-07T13:25:58.178Z,67.40
2018-11-07T13:28:26.590Z,63.43
2018-11-07T13:30:54.975Z,63.80
2018-11-07T13:33:23.347Z,78.57
2018-11-07T13:35:51.751Z,69.63
2018-11-07T13:38:20.357Z,57.70
2018-11-07T13:40:48.587Z,71.23
2018-11-07T13:43:16.979Z,64.90
2018-11-07T13:45:45.432Z,74.67
2018-11-07T13:48:13.780Z,71.57
2018-11-07T13:50:42.178Z,63.20
2018-11-07T13:53:10.599Z,71.80
2018-11-07T13:55:38.979Z,65.40
2018-11-07T13:58:07.378Z,71.87
2018-11-07T14:00:35.782Z,67.93
2018-11-07T14:03:04.266Z,61.83
2018-11-07T14:05:32.675Z,70.07
2018-11-07T14:08:01.062Z,66.97
2018-11-07T14:10:29.462Z,63.87
2018-11-07T14:12:57.838Z,62.90
2018-11-07T14:15:26.241Z,67.60
2018-11-07T14:17:54.627Z,71.17
2018-11-07T14:20:23.003Z,62.50
2018-11-07T14:22:51.406Z,74.17
2018-11-07T14:25:19.789Z,61.70
2018-11-07T14:27:48.304Z,64.80
2018-11-07T14:30:18.094Z,67.17
2018-11-07T14:32:50.938Z,60.10
2018-11-07T14:35:19.337Z,60.53
2018-11-07T14:37:47.735Z,67.03
2018-11-07T14:40:16.201Z,69.13
2018-11-07T14:42:44.626Z,75.27
2018-11-07T14:45:13.187Z,78.63
2018-11-07T14:47:42.353Z,58.27
2018-11-07T14:50:11.478Z,66.70
2018-11-07T14:52:39.916Z,55.93
2018-11-07T14:55:08.857Z,69.37
2018-11-07T14:57:37.253Z,62.93
2018-11-07T15:00:09.131Z,81.90
2018-11-07T15:02:37.813Z,70.90
2018-11-07T15:05:07.494Z,63.23
2018-11-07T15:07:35.895Z,60.37
2018-11-07T15:10:04.346Z,59.23
2018-11-07T15:12:32.819Z,66.83
2018-11-07T15:15:01.194Z,76.33
2018-11-07T15:17:29.632Z,69.13
2018-11-07T15:19:58.006Z,67.00
2018-11-07T15:22:26.406Z,66.30
2018-11-07T15:24:54.801Z,70.97
2018-11-07T15:27:23.203Z,63.23
2018-11-07T15:29:51.586Z,79.17
2018-11-07T15:32:20.172Z,64.93
2018-11-07T15:34:48.534Z,66.80
2018-11-07T15:37:16.937Z,67.27
2018-11-07T15:39:45.310Z,81.57
2018-11-07T15:42:13.729Z,69.50
2018-11-07T15:44:42.103Z,66.20
2018-11-07T15:47:10.507Z,69.67
2018-11-07T15:49:41.811Z,65.87
2018-11-07T15:52:10.548Z,67.87
2018-11-07T15:54:38.930Z,68.93
2018-11-07T15:57:07.338Z,70.33
2018-11-07T15:59:35.706Z,91.00
2018-11-07T16:02:04.119Z,74.10
2018-11-07T16:04:32.491Z,76.53
2018-11-07T16:07:00.886Z,78.47
2018-11-07T16:09:29.262Z,72.50
2018-11-07T16:11:57.695Z,70.70
2018-11-07T16:14:26.147Z,73.43
2018-11-07T16:16:54.517Z,76.43
2018-11-07T16:19:22.898Z,81.70
2018-11-07T16:21:51.294Z,80.10
2018-11-07T16:24:19.682Z,76.53
2018-11-07T16:26:48.059Z,76.50
2018-11-07T16:29:16.463Z,78.53
2018-11-07T16:31:44.877Z,74.60
2018-11-07T16:34:13.271Z,76.53
2018-11-07T16:36:41.715Z,80.33
2018-11-07T16:39:11.069Z,73.73
2018-11-07T16:41:39.570Z,72.03
2018-11-07T16:44:07.890Z,63.87
2018-11-07T16:46:36.486Z,80.60
2018-11-07T16:49:04.895Z,93.47
2018-11-07T16:51:33.298Z,99.07
2018-11-07T16:54:02.057Z,91.87
2018-11-07T16:56:30.438Z,83.47
2018-11-07T16:58:58.860Z,71.93
2018-11-07T17:01:27.251Z,91.37
2018-11-07T17:03:55.654Z,99.27
2018-11-07T17:06:24.034Z,100.37
2018-11-07T17:08:52.438Z,98.80
2018-11-07T17:11:20.815Z,92.73
2018-11-07T17:13:49.222Z,83.87
2018-11-07T17:16:17.600Z,81.97
2018-11-07T17:18:46.003Z,70.00
2018-11-07T17:21:14.391Z,90.17
2018-11-07T17:23:42.796Z,132.40
2018-11-07T17:26:11.186Z,105.13
2018-11-07T17:28:39.588Z,96.67
2018-11-07T17:31:07.977Z,102.27
2018-11-07T17:33:36.379Z,96.97
2018-11-07T17:36:05.148Z,108.27
2018-11-07T17:38:33.614Z,94.00
2018-11-07T17:41:01.970Z,93.03
2018-11-07T17:43:30.582Z,95.37
2018-11-07T17:45:58.963Z,107.67
2018-11-07T17:48:27.421Z,105.73
2018-11-07T17:50:55.764Z,93.33
2018-11-07T17:53:24.150Z,84.67
2018-11-07T17:55:52.532Z,69.33
2018-11-07T17:58:20.926Z,87.03
2018-11-07T18:00:49.326Z,90.50
2018-11-07T18:03:17.730Z,103.10
2018-11-07T18:05:46.098Z,91.43
2018-11-07T18:08:14.506Z,111.33
2018-11-07T18:10:43.539Z,96.97
2018-11-07T18:13:11.934Z,93.13
2018-11-07T18:15:40.311Z,127.63
2018-11-07T18:18:08.728Z,137.03
2018-11-07T18:20:37.130Z,143.93
2018-11-07T18:23:05.990Z,119.33
2018-11-07T18:25:34.394Z,130.73
2018-11-07T18:28:02.778Z,120.83
2018-11-07T18:30:31.182Z,115.20
2018-11-07T18:33:04.877Z,105.83
2018-11-07T18:35:33.308Z,100.70
2018-11-07T18:38:01.714Z,104.73
2018-11-07T18:40:30.126Z,105.47
2018-11-07T18:42:58.537Z,111.77
2018-11-07T18:45:26.971Z,85.20
2018-11-07T18:47:55.355Z,106.27
2018-11-07T18:50:23.811Z,92.30
2018-11-07T18:52:52.181Z,69.90
2018-11-07T18:55:20.588Z,79.17
2018-11-07T18:57:48.980Z,99.20
2018-11-07T19:00:18.844Z,100.27
2018-11-07T19:02:47.815Z,83.87
2018-11-07T19:05:16.466Z,89.50
2018-11-07T19:07:45.034Z,89.30
2018-11-07T19:10:15.730Z,86.27
2018-11-07T19:12:44.601Z,115.87
2018-11-07T19:15:14.038Z,100.80
2018-11-07T19:17:43.410Z,112.53
2018-11-07T19:20:12.904Z,128.77
2018-11-07T19:22:41.394Z,120.60
2018-11-07T19:25:12.235Z,110.80
2018-11-07T19:27:40.613Z,115.43
2018-11-07T19:30:12.782Z,101.10
2018-11-07T19:32:41.420Z,99.57
2018-11-07T19:35:11.354Z,87.90
2018-11-07T19:37:39.867Z,90.43
2018-11-07T19:40:10.242Z,79.97
2018-11-07T19:42:40.621Z,78.97
2018-11-07T19:45:11.782Z,72.83
2018-11-07T19:47:40.338Z,95.73
2018-11-07T19:50:10.282Z,91.30
2018-11-07T19:52:38.686Z,88.17
2018-11-07T19:55:09.494Z,75.03
2018-11-07T19:57:37.904Z,90.60
2018-11-07T20:00:09.746Z,85.30
2018-11-07T20:02:38.110Z,98.67
2018-11-07T20:05:07.038Z,94.87
2018-11-07T20:07:35.886Z,100.73
2018-11-07T20:10:04.323Z,69.17
2018-11-07T20:12:32.759Z,105.33
2018-11-07T20:15:01.147Z,94.83
2018-11-07T20:17:29.514Z,88.37
2018-11-07T20:19:57.910Z,75.33
2018-11-07T20:22:26.274Z,97.40
2018-11-07T20:24:54.670Z,123.03
2018-11-07T20:27:23.083Z,211.20
2018-11-07T20:29:51.570Z,100.00
2018-11-07T20:32:19.942Z,149.60
2018-11-07T20:34:48.370Z,297.67
2018-11-07T20:37:16.747Z,339.53
2018-11-07T20:39:45.290Z,223.10
2018-11-07T20:42:13.692Z,119.37
2018-11-07T20:44:42.298Z,407.90
2018-11-07T20:47:10.903Z,160.03
2018-11-07T20:49:39.283Z,160.37
2018-11-07T20:52:07.674Z,173.40
2018-11-07T20:54:36.288Z,113.87
2018-11-07T20:57:04.651Z,106.33
2018-11-07T20:59:33.022Z,92.40
2018-11-07T21:02:01.590Z,96.57
2018-11-07T21:04:30.085Z,81.93
2018-11-07T21:06:58.480Z,91.67
2018-11-07T21:09:26.854Z,100.30
2018-11-07T21:11:55.415Z,113.00
2018-11-07T21:14:23.785Z,93.27
2018-11-07T21:16:52.213Z,98.70
2018-11-07T21:19:20.583Z,103.40
2018-11-07T21:21:48.981Z,116.43
2018-11-07T21:24:17.355Z,129.87
2018-11-07T21:26:45.786Z,115.67
2018-11-07T21:29:14.166Z,116.17
2018-11-07T21:31:42.558Z,98.17
2018-11-07T21:34:10.930Z,89.07
2018-11-07T21:36:39.319Z,89.10
2018-11-07T21:39:09.822Z,92.83
2018-11-07T21:41:38.427Z,92.03
2018-11-07T21:44:06.805Z,113.80
2018-11-07T21:46:35.206Z,133.07
2018-11-07T21:49:03.578Z,129.97
2018-11-07T21:51:31.983Z,115.20
2018-11-07T21:54:00.371Z,121.40
2018-11-07T21:56:28.769Z,103.67
2018-11-07T21:58:57.210Z,113.70
2018-11-07T22:01:25.605Z,105.60
2018-11-07T22:03:53.986Z,151.13
2018-11-07T22:06:22.378Z,137.47
2018-11-07T22:08:50.754Z,112.30
2018-11-07T22:11:19.153Z,113.97
2018-11-07T22:13:47.518Z,91.43
2018-11-07T22:16:15.909Z,90.03
2018-11-07T22:18:44.278Z,144.07
2018-11-07T22:21:12.676Z,162.47
2018-11-07T22:23:41.085Z,132.43
2018-11-07T22:26:09.502Z,153.87
2018-11-07T22:28:37.879Z,234.87
2018-11-07T22:31:06.843Z,112.47
2018-11-07T22:33:35.223Z,116.00
2018-11-07T22:36:03.602Z,129.27
2018-11-07T22:38:31.998Z,141.07
2018-11-07T22:41:00.378Z,127.87
2018-11-07T22:43:28.799Z,140.10
2018-11-07T22:45:57.170Z,116.60
2018-11-07T22:48:25.574Z,219.50
2018-11-07T22:50:53.954Z,218.20
2018-11-07T22:53:22.350Z,242.00
2018-11-07T22:55:50.730Z,189.37
2018-11-07T22:58:19.134Z,218.57
2018-11-07T23:00:52.954Z,153.70
2018-11-07T23:03:21.347Z,283.27
2018-11-07T23:05:49.726Z,248.87
2018-11-07T23:08:18.118Z,278.97
2018-11-07T23:10:46.490Z,314.17
2018-11-07T23:13:14.883Z,237.37
2018-11-07T23:15:49.221Z,292.63
2018-11-07T23:18:19.058Z,190.53
2018-11-07T23:20:47.442Z,170.77
2018-11-07T23:23:16.434Z,107.07
2018-11-07T23:25:45.198Z,386.93
2018-11-07T23:28:13.595Z,280.47
2018-11-07T23:30:41.966Z,240.83
2018-11-07T23:33:10.402Z,149.97
2018-11-07T23:35:38.923Z,306.23
2018-11-07T23:38:07.323Z,313.93
2018-11-07T23:40:35.698Z,136.80
2018-11-07T23:43:04.119Z,182.00
2018-11-07T23:45:32.491Z,246.17
2018-11-07T23:48:00.892Z,398.83
2018-11-07T23:50:29.266Z,206.90
2018-11-07T23:52:58.285Z,404.80
2018-11-07T23:55:26.666Z,396.40
2018-11-07T23:57:55.099Z,175.50
